Time;durP1;ratioP1;P1;durP2;ratioP2;P2;SDS_P1;SDS_P2;PMS_P1;PMS_P2;Temp;Humidity;BMP_temperature;BMP_pressure;BME280_temperature;BME280_humidity;BME280_pressure;Samples;Min_cycle;Max_cycle;Signal;HPM_P1;HPM_P2
2021/12/26 05:11:55;;;;;;;;;;;4.20;99.90;;;;;;4943743;28;19933;-78
2021/12/26 05:14:24;;;;;;;;;;;4.20;99.90;;;;;;4971545;28;19926;-81
2021/12/26 05:16:51;;;;;;;;;;;4.20;99.90;;;;;;4968596;28;19930;-79
2021/12/26 05:19:20;;;;;;;;;;;4.10;99.90;;;;;;4971547;28;20399;-79
2021/12/26 05:21:47;;;;;;;;;;;4.20;99.90;;;;;;4971045;28;20458;-79
2021/12/26 05:24:14;;;;;;;;;;;4.10;99.90;;;;;;4972034;28;19930;-80
2021/12/26 05:26:43;;;;;;;;;;;4.10;99.90;;;;;;4970012;28;20036;-79
2021/12/26 05:29:11;;;;;;;;;;;4.10;99.90;;;;;;4947770;28;19926;-79
2021/12/26 05:31:38;;;;;;;;;;;4.10;99.90;;;;;;4967549;28;20002;-79
2021/12/26 05:34:05;;;;;;;;;;;4.10;99.90;;;;;;4970839;28;19977;-79
2021/12/26 05:36:32;;;;;;;;;;;4.10;99.90;;;;;;4966927;28;19937;-79
2021/12/26 05:38:59;;;;;;;;;;;4.10;99.90;;;;;;4950328;28;19927;-80
2021/12/26 05:41:26;;;;;;;;;;;4.10;99.90;;;;;;4976210;28;19926;-79
2021/12/26 05:44:18;;;;;;;;;;;4.10;99.90;;;;;;4963025;28;19969;-80
2021/12/26 05:46:45;;;;;;;;;;;4.00;99.90;;;;;;4968473;28;20404;-80
2021/12/26 05:49:13;;;;;;;;;;;4.00;99.90;;;;;;4969031;28;20400;-79
2021/12/26 05:51:50;;;;;;;;;;;4.10;99.90;;;;;;4973421;28;20008;-77
2021/12/26 05:54:17;;;;;;;;;;;4.00;99.90;;;;;;4963667;28;20055;-80
2021/12/26 05:56:46;;;;;;;;;;;4.00;99.90;;;;;;4958788;28;20412;-77
2021/12/26 05:59:13;;;;;;;;;;;4.00;99.90;;;;;;4967220;28;19933;-79
2021/12/26 06:01:43;;;;;;;;;;;4.00;99.90;;;;;;4967510;28;20001;-79
2021/12/26 06:04:10;;;;;;;;;;;4.00;99.90;;;;;;4958764;28;19977;-79
2021/12/26 06:06:37;;;;;;;;;;;4.00;99.90;;;;;;4967938;28;20014;-80
2021/12/26 06:09:04;;;;;;;;;;;4.00;99.90;;;;;;4966013;28;19927;-79
2021/12/26 06:11:32;;;;;;;;;;;4.00;99.90;;;;;;4961666;28;20021;-79
2021/12/26 06:13:59;;;;;;;;;;;4.00;99.90;;;;;;4962666;28;19973;-79
2021/12/26 06:16:26;;;;;;;;;;;4.00;99.90;;;;;;4965502;28;19966;-80
2021/12/26 06:18:54;;;;;;;;;;;4.00;99.90;;;;;;4965442;28;19930;-79
2021/12/26 06:21:40;;;;;;;;;;;4.00;99.90;;;;;;4964911;28;19973;-77
2021/12/26 06:24:29;;;;;;;;;;;3.90;99.90;;;;;;4947947;28;19932;-78
2021/12/26 06:27:23;;;;;;;;;;;4.00;99.90;;;;;;4951092;28;20400;-80
2021/12/26 06:30:09;;;;;;;;;;;3.90;99.90;;;;;;4963942;28;19996;-79
2021/12/26 06:32:59;;;;;;;;;;;3.90;99.90;;;;;;4940822;28;19981;-79
2021/12/26 06:35:49;;;;;;;;;;;3.90;99.90;;;;;;4947735;28;20376;-80
2021/12/26 06:38:35;;;;;;;;;;;3.90;99.90;;;;;;4966207;28;19941;-79
2021/12/26 06:41:22;;;;;;;;;;;3.90;99.90;;;;;;4966011;28;19933;-79
2021/12/26 06:44:18;;;;;;;;;;;3.90;99.90;;;;;;4934350;28;19927;-79
2021/12/26 06:46:45;;;;;;;;;;;3.90;99.90;;;;;;4961428;28;19926;-80
2021/12/26 06:49:35;;;;;;;;;;;3.90;99.90;;;;;;4966748;28;19930;-80
2021/12/26 06:52:06;;;;;;;;;;;3.90;99.90;;;;;;4965722;28;19935;-79
2021/12/26 06:54:33;;;;;;;;;;;3.90;99.90;;;;;;4968349;28;20458;-79
2021/12/26 06:57:00;;;;;;;;;;;3.90;99.90;;;;;;4969832;28;20388;-80
2021/12/26 06:59:27;;;;;;;;;;;3.90;99.90;;;;;;4964446;28;19926;-77
2021/12/26 07:01:54;;;;;;;;;;;3.90;99.90;;;;;;4966101;28;19950;-79
2021/12/26 07:04:25;;;;;;;;;;;3.80;99.90;;;;;;4964858;28;19956;-79
2021/12/26 07:06:52;;;;;;;;;;;3.80;99.90;;;;;;4970398;28;19964;-79
2021/12/26 07:09:30;;;;;;;;;;;3.80;99.90;;;;;;4967129;28;19934;-78
2021/12/26 07:11:58;;;;;;;;;;;3.80;99.90;;;;;;4962691;28;19981;-79
2021/12/26 07:14:42;;;;;;;;;;;3.80;99.90;;;;;;4971009;28;19937;-79
2021/12/26 07:17:10;;;;;;;;;;;3.80;99.90;;;;;;4967949;28;20308;-80
2021/12/26 07:19:38;;;;;;;;;;;3.80;99.90;;;;;;4947922;28;20356;-80
2021/12/26 07:22:14;;;;;;;;;;;3.80;99.90;;;;;;4968748;28;19926;-80
2021/12/26 07:24:44;;;;;;;;;;;3.80;99.90;;;;;;4965497;28;19976;-78
2021/12/26 07:27:11;;;;;;;;;;;3.90;99.90;;;;;;4965027;28;19983;-80
2021/12/26 07:30:06;;;;;;;;;;;3.80;99.90;;;;;;4969494;28;19926;-80
2021/12/26 07:32:35;;;;;;;;;;;3.80;99.90;;;;;;4963392;28;20029;-78
2021/12/26 07:35:03;;;;;;;;;;;3.80;99.90;;;;;;4969195;28;19930;-79
2021/12/26 07:37:30;;;;;;;;;;;3.80;99.90;;;;;;4968347;28;20076;-80
2021/12/26 07:39:59;;;;;;;;;;;3.80;99.90;;;;;;4966194;28;19973;-79
2021/12/26 07:42:28;;;;;;;;;;;3.80;99.90;;;;;;4975566;28;19957;-79
2021/12/26 07:45:13;;;;;;;;;;;3.80;99.90;;;;;;4970960;28;20473;-79
2021/12/26 07:47:47;;;;;;;;;;;3.80;99.90;;;;;;4972177;28;19926;-80
2021/12/26 07:50:14;;;;;;;;;;;3.80;99.90;;;;;;4972495;28;19930;-79
2021/12/26 07:53:05;;;;;;;;;;;3.80;99.90;;;;;;4968552;28;19950;-78
2021/12/26 07:55:52;;;;;;;;;;;3.80;99.90;;;;;;4971603;28;20004;-78
2021/12/26 07:58:51;;;;;;;;;;;3.70;99.90;;;;;;4942773;28;19934;-79
2021/12/26 08:01:37;;;;;;;;;;;3.80;99.90;;;;;;4965954;28;20042;-80
2021/12/26 08:04:22;;;;;;;;;;;3.70;99.90;;;;;;4970766;28;20132;-80
2021/12/26 08:07:08;;;;;;;;;;;3.80;99.90;;;;;;4971223;28;20496;-79
2021/12/26 08:09:35;;;;;;;;;;;3.80;99.90;;;;;;4968591;28;19926;-79
2021/12/26 08:12:04;;;;;;;;;;;3.80;99.90;;;;;;4951559;28;19930;-79
2021/12/26 08:14:31;;;;;;;;;;;3.70;99.90;;;;;;4972173;28;19973;-80
2021/12/26 08:16:58;;;;;;;;;;;3.80;99.90;;;;;;4970272;28;19930;-79
2021/12/26 08:19:25;;;;;;;;;;;3.70;99.90;;;;;;4965439;28;19930;-78
2021/12/26 08:21:52;;;;;;;;;;;3.70;99.90;;;;;;4965372;28;19927;-79
2021/12/26 08:24:21;;;;;;;;;;;3.70;99.90;;;;;;4973752;28;19926;-79
2021/12/26 08:26:51;;;;;;;;;;;3.70;99.90;;;;;;4953367;28;20414;-79
2021/12/26 08:29:21;;;;;;;;;;;3.80;99.90;;;;;;4969357;28;19941;-79
2021/12/26 08:31:49;;;;;;;;;;;3.70;99.90;;;;;;4961952;28;19926;-79
2021/12/26 08:34:20;;;;;;;;;;;3.70;99.90;;;;;;4945667;28;20024;-80
2021/12/26 08:36:48;;;;;;;;;;;3.70;99.90;;;;;;4940021;28;19926;-81
2021/12/26 08:39:20;;;;;;;;;;;3.70;99.90;;;;;;4950014;28;19981;-81
2021/12/26 08:41:47;;;;;;;;;;;3.70;99.90;;;;;;4946468;28;19930;-79
2021/12/26 08:44:16;;;;;;;;;;;3.80;99.90;;;;;;4928446;28;19934;-80
2021/12/26 08:46:45;;;;;;;;;;;3.70;99.90;;;;;;4961282;28;19988;-80
2021/12/26 08:49:12;;;;;;;;;;;3.70;99.90;;;;;;4957042;28;20392;-79
2021/12/26 08:51:43;;;;;;;;;;;3.70;99.90;;;;;;4956034;28;19930;-79
2021/12/26 08:54:12;;;;;;;;;;;3.70;99.90;;;;;;4956341;28;19933;-79
2021/12/26 08:56:41;;;;;;;;;;;3.70;99.90;;;;;;4942325;28;19942;-80
2021/12/26 08:59:08;;;;;;;;;;;3.70;99.90;;;;;;4950584;28;20101;-80
2021/12/26 09:01:35;;;;;;;;;;;3.70;99.90;;;;;;4964049;28;19976;-80
2021/12/26 09:04:04;;;;;;;;;;;3.70;99.90;;;;;;4945181;28;19934;-80
2021/12/26 09:06:31;;;;;;;;;;;3.70;99.90;;;;;;4953705;28;19926;-79
2021/12/26 09:08:58;;;;;;;;;;;3.80;99.90;;;;;;4959685;28;20013;-79
2021/12/26 09:11:25;;;;;;;;;;;3.80;99.90;;;;;;4959579;28;20304;-79
2021/12/26 09:13:52;;;;;;;;;;;3.80;99.90;;;;;;4959809;28;19934;-78
2021/12/26 09:16:19;;;;;;;;;;;3.80;99.90;;;;;;4967005;28;19930;-78
2021/12/26 09:18:47;;;;;;;;;;;3.70;99.90;;;;;;4953042;28;20432;-77
2021/12/26 09:21:15;;;;;;;;;;;3.70;99.90;;;;;;4948660;28;19933;-78
2021/12/26 09:23:42;;;;;;;;;;;3.80;99.90;;;;;;4958243;28;19926;-77
2021/12/26 09:26:09;;;;;;;;;;;3.80;99.90;;;;;;4959268;28;19926;-76
2021/12/26 09:28:38;;;;;;;;;;;3.80;99.90;;;;;;4959849;28;19932;-76
2021/12/26 09:31:05;;;;;;;;;;;3.80;99.90;;;;;;4959623;28;20431;-77
2021/12/26 09:33:32;;;;;;;;;;;3.70;99.90;;;;;;4969972;28;19934;-77
2021/12/26 09:36:00;;;;;;;;;;;3.70;99.90;;;;;;4957552;28;19926;-76
2021/12/26 09:38:28;;;;;;;;;;;3.70;99.90;;;;;;4957035;28;19930;-76
2021/12/26 09:40:59;;;;;;;;;;;3.80;99.90;;;;;;4962528;28;19935;-76
2021/12/26 09:43:27;;;;;;;;;;;3.70;99.90;;;;;;4961361;28;19948;-77
2021/12/26 09:45:54;;;;;;;;;;;3.70;99.90;;;;;;4962658;28;19934;-76
2021/12/26 09:48:21;;;;;;;;;;;3.70;99.90;;;;;;4960485;28;20336;-76
2021/12/26 09:50:48;;;;;;;;;;;3.80;99.90;;;;;;4962585;28;20045;-77
2021/12/26 09:53:14;;;;;;;;;;;3.80;99.90;;;;;;4961487;28;19985;-78
2021/12/26 09:55:43;;;;;;;;;;;3.70;99.90;;;;;;4946843;28;19937;-78
2021/12/26 09:58:10;;;;;;;;;;;3.70;99.90;;;;;;4964111;28;19930;-76
2021/12/26 10:00:38;;;;;;;;;;;3.80;99.90;;;;;;4962481;28;19926;-77
2021/12/26 10:03:10;;;;;;;;;;;3.70;99.90;;;;;;4961563;28;19934;-76
2021/12/26 10:05:52;;;;;;;;;;;3.80;99.90;;;;;;4942039;28;19986;-76
2021/12/26 10:08:18;;;;;;;;;;;3.80;99.90;;;;;;4962461;28;20389;-77
2021/12/26 10:11:03;;;;;;;;;;;3.80;99.90;;;;;;4960990;28;19997;-77
2021/12/26 10:13:37;;;;;;;;;;;3.80;99.90;;;;;;4961307;28;19933;-77
2021/12/26 10:16:04;;;;;;;;;;;3.80;99.90;;;;;;4954639;28;19933;-77
2021/12/26 10:18:31;;;;;;;;;;;3.80;99.90;;;;;;4964642;28;20012;-77
2021/12/26 10:20:58;;;;;;;;;;;3.80;99.90;;;;;;4950020;28;19981;-77
2021/12/26 10:23:25;;;;;;;;;;;3.80;99.90;;;;;;4962737;28;20289;-77
2021/12/26 10:25:52;;;;;;;;;;;3.80;99.90;;;;;;4961825;28;20013;-77
2021/12/26 10:28:20;;;;;;;;;;;3.80;99.90;;;;;;4967669;28;20395;-77
2021/12/26 10:30:47;;;;;;;;;;;3.80;99.90;;;;;;4959703;28;19933;-77
2021/12/26 10:33:14;;;;;;;;;;;3.80;99.90;;;;;;4944794;28;19926;-76
2021/12/26 10:35:41;;;;;;;;;;;3.80;99.90;;;;;;4956925;28;19930;-77
2021/12/26 10:38:16;;;;;;;;;;;3.80;99.90;;;;;;4958197;28;19941;-77
2021/12/26 10:40:49;;;;;;;;;;;3.80;99.90;;;;;;4968571;28;19953;-77
2021/12/26 10:43:16;;;;;;;;;;;3.80;99.90;;;;;;4948359;28;19934;-76
2021/12/26 10:45:45;;;;;;;;;;;3.80;99.90;;;;;;4966136;28;19926;-77
2021/12/26 10:48:12;;;;;;;;;;;3.80;99.90;;;;;;4964893;28;19926;-76
2021/12/26 10:50:40;;;;;;;;;;;3.80;99.90;;;;;;4956545;28;19926;-77
2021/12/26 10:53:08;;;;;;;;;;;3.90;99.90;;;;;;4968126;28;19937;-77
2021/12/26 10:55:36;;;;;;;;;;;3.90;99.90;;;;;;4961465;28;19926;-76
2021/12/26 10:58:04;;;;;;;;;;;3.90;99.90;;;;;;4960362;28;20021;-77
2021/12/26 11:00:33;;;;;;;;;;;3.90;99.90;;;;;;4962035;28;19926;-77
2021/12/26 11:03:03;;;;;;;;;;;3.90;99.90;;;;;;4964959;28;20375;-76
2021/12/26 11:05:34;;;;;;;;;;;3.90;99.90;;;;;;4943960;28;19930;-77
2021/12/26 11:08:02;;;;;;;;;;;3.90;99.90;;;;;;4958365;28;20389;-76
2021/12/26 11:10:32;;;;;;;;;;;3.90;99.90;;;;;;4961018;28;19932;-78
2021/12/26 11:13:00;;;;;;;;;;;3.90;99.90;;;;;;4962028;28;19926;-76
2021/12/26 11:15:28;;;;;;;;;;;3.90;99.90;;;;;;4968486;28;19926;-77
2021/12/26 11:17:56;;;;;;;;;;;3.90;99.90;;;;;;4967722;28;19933;-77
2021/12/26 11:20:26;;;;;;;;;;;3.90;99.90;;;;;;4968620;28;19926;-77
2021/12/26 11:22:53;;;;;;;;;;;3.90;99.90;;;;;;4972386;28;19980;-76
2021/12/26 11:25:20;;;;;;;;;;;3.90;99.90;;;;;;4964573;28;19982;-78
2021/12/26 11:27:48;;;;;;;;;;;3.90;99.90;;;;;;4964147;28;19951;-76
2021/12/26 11:30:15;;;;;;;;;;;3.90;99.90;;;;;;4963480;28;19930;-77
2021/12/26 11:32:42;;;;;;;;;;;3.90;99.90;;;;;;4953354;28;19992;-76
2021/12/26 11:35:09;;;;;;;;;;;4.00;99.90;;;;;;4967817;28;19932;-77
2021/12/26 11:37:39;;;;;;;;;;;4.00;99.90;;;;;;4960817;28;19938;-77
2021/12/26 11:40:25;;;;;;;;;;;4.00;99.90;;;;;;4967825;28;20065;-77
2021/12/26 11:43:27;;;;;;;;;;;4.00;99.90;;;;;;4939577;28;19926;-77
2021/12/26 11:46:17;;;;;;;;;;;4.00;99.90;;;;;;4964613;28;19933;-77
2021/12/26 11:49:25;;;;;;;;;;;4.00;99.90;;;;;;4961583;28;20027;-77
2021/12/26 11:52:29;;;;;;;;;;;4.00;99.90;;;;;;4970701;28;19934;-77
2021/12/26 11:55:24;;;;;;;;;;;4.00;99.90;;;;;;4953629;28;20326;-77
2021/12/26 11:58:07;;;;;;;;;;;4.00;99.90;;;;;;4969412;28;20273;-76
2021/12/26 12:00:36;;;;;;;;;;;4.00;99.90;;;;;;4977163;28;19930;-77
2021/12/26 12:03:04;;;;;;;;;;;4.00;99.90;;;;;;4964914;28;19934;-77
2021/12/26 12:05:36;;;;;;;;;;;4.00;99.90;;;;;;4966614;28;20030;-76
2021/12/26 12:08:04;;;;;;;;;;;4.00;99.90;;;;;;4965887;28;19938;-77
2021/12/26 12:10:34;;;;;;;;;;;4.10;99.90;;;;;;4970991;28;19949;-77
2021/12/26 12:13:01;;;;;;;;;;;4.10;99.90;;;;;;4970179;28;19926;-77
2021/12/26 12:15:46;;;;;;;;;;;4.10;99.90;;;;;;4942442;28;19994;-76
2021/12/26 12:18:14;;;;;;;;;;;4.10;99.90;;;;;;4964533;28;19937;-77
2021/12/26 12:20:41;;;;;;;;;;;4.10;99.90;;;;;;4961402;28;19933;-76
2021/12/26 12:23:13;;;;;;;;;;;4.10;99.90;;;;;;4960467;28;19950;-77
2021/12/26 12:25:49;;;;;;;;;;;4.10;99.90;;;;;;4960662;28;19926;-77
2021/12/26 12:28:17;;;;;;;;;;;4.10;99.90;;;;;;4949963;28;19992;-76
2021/12/26 12:30:45;;;;;;;;;;;4.20;99.90;;;;;;4964552;28;19930;-77
2021/12/26 12:33:13;;;;;;;;;;;4.10;99.90;;;;;;4963009;28;20393;-78
2021/12/26 12:35:49;;;;;;;;;;;4.20;99.90;;;;;;4968196;28;19927;-78
2021/12/26 12:38:27;;;;;;;;;;;4.20;99.90;;;;;;4947166;28;19945;-76
2021/12/26 12:40:58;;;;;;;;;;;4.20;99.90;;;;;;4925664;28;19964;-77
2021/12/26 12:43:26;;;;;;;;;;;4.20;99.90;;;;;;4945873;28;19934;-77
2021/12/26 12:46:06;;;;;;;;;;;4.20;99.90;;;;;;4968075;28;19973;-77
2021/12/26 12:48:34;;;;;;;;;;;4.20;99.90;;;;;;4959299;28;19926;-77
2021/12/26 12:51:06;;;;;;;;;;;4.20;99.90;;;;;;4961146;28;20003;-76
2021/12/26 12:53:40;;;;;;;;;;;4.20;99.90;;;;;;4951030;28;20028;-75
2021/12/26 12:56:12;;;;;;;;;;;4.20;99.90;;;;;;4959575;28;19965;-77
2021/12/26 12:58:39;;;;;;;;;;;4.30;99.90;;;;;;4952293;28;19969;-77
2021/12/26 13:01:07;;;;;;;;;;;4.30;99.90;;;;;;4952583;28;19942;-76
2021/12/26 13:03:36;;;;;;;;;;;4.30;99.90;;;;;;4959349;28;19931;-77
2021/12/26 13:06:07;;;;;;;;;;;4.20;99.90;;;;;;4963751;28;19926;-78
2021/12/26 13:08:34;;;;;;;;;;;4.30;99.90;;;;;;4959911;28;19930;-76
2021/12/26 13:11:02;;;;;;;;;;;4.30;99.90;;;;;;4947509;28;19937;-78
2021/12/26 13:13:31;;;;;;;;;;;4.30;99.90;;;;;;4961912;28;19930;-76
2021/12/26 13:15:59;;;;;;;;;;;4.30;99.90;;;;;;4951355;28;19937;-77
2021/12/26 13:18:27;;;;;;;;;;;4.30;99.90;;;;;;4960246;28;19941;-76
2021/12/26 13:20:55;;;;;;;;;;;4.30;99.90;;;;;;4962004;28;21928;-78
2021/12/26 13:23:22;;;;;;;;;;;4.30;99.90;;;;;;4965706;28;19937;-77
2021/12/26 13:25:49;;;;;;;;;;;4.30;99.90;;;;;;4950116;28;19934;-77
2021/12/26 13:28:21;;;;;;;;;;;4.30;99.90;;;;;;4943224;28;19937;-77
2021/12/26 13:30:50;;;;;;;;;;;4.30;99.90;;;;;;4963307;28;19932;-76
2021/12/26 13:33:18;;;;;;;;;;;4.30;99.90;;;;;;4960565;28;19934;-76
2021/12/26 13:35:45;;;;;;;;;;;4.40;99.90;;;;;;4961019;28;19934;-77
2021/12/26 13:38:12;;;;;;;;;;;4.30;99.90;;;;;;4966125;28;19934;-77
2021/12/26 13:40:41;;;;;;;;;;;4.40;99.90;;;;;;4964451;28;20136;-76
2021/12/26 13:43:09;;;;;;;;;;;4.40;99.90;;;;;;4957840;28;19933;-76
2021/12/26 13:45:37;;;;;;;;;;;4.40;99.90;;;;;;4959608;28;19927;-76
2021/12/26 13:48:06;;;;;;;;;;;4.40;99.90;;;;;;4959212;28;20036;-77
2021/12/26 13:50:33;;;;;;;;;;;4.40;99.90;;;;;;4953112;28;19934;-77
2021/12/26 13:53:01;;;;;;;;;;;4.40;99.90;;;;;;4958550;28;19932;-77
2021/12/26 13:55:28;;;;;;;;;;;4.40;99.90;;;;;;4954310;28;20029;-76
2021/12/26 13:57:59;;;;;;;;;;;4.40;99.90;;;;;;4944420;28;19945;-76
2021/12/26 14:00:26;;;;;;;;;;;4.40;99.90;;;;;;4949605;28;20528;-76
2021/12/26 14:02:54;;;;;;;;;;;4.40;99.90;;;;;;4949869;28;19957;-76
2021/12/26 14:05:23;;;;;;;;;;;4.40;99.90;;;;;;4956213;28;20273;-76
2021/12/26 14:08:01;;;;;;;;;;;4.40;99.90;;;;;;4961559;28;19930;-76
2021/12/26 14:10:29;;;;;;;;;;;4.40;99.90;;;;;;4961404;28;19980;-76
2021/12/26 14:12:59;;;;;;;;;;;4.40;99.90;;;;;;4953033;28;20954;-76
2021/12/26 14:15:28;;;;;;;;;;;4.40;99.90;;;;;;4956114;28;19930;-77
2021/12/26 14:17:56;;;;;;;;;;;4.50;99.90;;;;;;4956324;28;20028;-78
2021/12/26 14:20:26;;;;;;;;;;;4.40;99.90;;;;;;4956231;28;19927;-76
2021/12/26 14:22:53;;;;;;;;;;;4.50;99.90;;;;;;4946041;28;19926;-79
2021/12/26 14:25:20;;;;;;;;;;;4.50;99.90;;;;;;4958823;28;19949;-79
2021/12/26 14:27:47;;;;;;;;;;;4.50;99.90;;;;;;4954096;28;19926;-79
2021/12/26 14:30:14;;;;;;;;;;;4.50;99.90;;;;;;4950686;28;19926;-77
2021/12/26 14:32:41;;;;;;;;;;;4.50;99.90;;;;;;4964578;28;19926;-76
2021/12/26 14:35:13;;;;;;;;;;;4.50;99.90;;;;;;4949601;28;19957;-77
2021/12/26 14:37:41;;;;;;;;;;;4.50;99.90;;;;;;4953652;28;19926;-78
2021/12/26 14:40:09;;;;;;;;;;;4.50;99.90;;;;;;4954161;28;19941;-79
2021/12/26 14:42:42;;;;;;;;;;;4.50;99.90;;;;;;4955744;28;20407;-78
2021/12/26 14:45:14;;;;;;;;;;;4.50;99.90;;;;;;4954590;28;19936;-77
2021/12/26 14:47:43;;;;;;;;;;;4.50;99.90;;;;;;4962298;28;19926;-79
2021/12/26 14:50:12;;;;;;;;;;;4.50;99.90;;;;;;4944425;28;19926;-79
2021/12/26 14:52:43;;;;;;;;;;;4.50;99.90;;;;;;4957969;28;19961;-78
2021/12/26 14:55:14;;;;;;;;;;;4.50;99.90;;;;;;4958661;28;19949;-78
2021/12/26 14:57:41;;;;;;;;;;;4.50;99.90;;;;;;4955710;28;19926;-78
2021/12/26 15:00:09;;;;;;;;;;;4.50;99.90;;;;;;4957804;28;20393;-80
2021/12/26 15:02:37;;;;;;;;;;;4.50;99.90;;;;;;4960376;28;20020;-78
2021/12/26 15:05:05;;;;;;;;;;;4.50;99.90;;;;;;4953813;28;19934;-77
2021/12/26 15:07:40;;;;;;;;;;;4.50;99.90;;;;;;4952247;28;20514;-79
2021/12/26 15:10:10;;;;;;;;;;;4.50;99.90;;;;;;4959400;28;19933;-79
2021/12/26 15:12:38;;;;;;;;;;;4.50;99.90;;;;;;4955521;28;19937;-78
2021/12/26 15:15:24;;;;;;;;;;;4.50;99.90;;;;;;4968740;28;20038;-79
2021/12/26 15:17:52;;;;;;;;;;;4.50;99.90;;;;;;4955954;28;19970;-78
2021/12/26 15:20:21;;;;;;;;;;;4.50;99.90;;;;;;4955299;28;19926;-80
2021/12/26 15:22:47;;;;;;;;;;;4.50;99.90;;;;;;4964013;28;19926;-79
2021/12/26 15:25:26;;;;;;;;;;;4.50;99.90;;;;;;4944357;28;19930;-79
2021/12/26 15:28:02;;;;;;;;;;;4.60;99.90;;;;;;4953247;28;19933;-78
2021/12/26 15:30:29;;;;;;;;;;;4.60;99.90;;;;;;4964053;28;19940;-79
2021/12/26 15:32:57;;;;;;;;;;;4.60;99.90;;;;;;4961593;28;19927;-78
2021/12/26 15:35:24;;;;;;;;;;;4.50;99.90;;;;;;4957761;28;20558;-78
2021/12/26 15:37:51;;;;;;;;;;;4.50;99.90;;;;;;4951130;28;19935;-76
2021/12/26 15:40:19;;;;;;;;;;;4.50;99.90;;;;;;4941805;28;19934;-78
2021/12/26 15:42:46;;;;;;;;;;;4.50;99.90;;;;;;4942185;28;19941;-78
2021/12/26 15:45:14;;;;;;;;;;;4.50;99.90;;;;;;4923474;28;19934;-79
2021/12/26 15:47:42;;;;;;;;;;;4.60;99.90;;;;;;4902059;28;19934;-79
2021/12/26 15:50:10;;;;;;;;;;;4.70;99.90;;;;;;4922183;28;19961;-79
2021/12/26 15:52:37;;;;;;;;;;;4.70;99.90;;;;;;4928520;28;19938;-79
2021/12/26 15:55:04;;;;;;;;;;;4.60;99.90;;;;;;4930596;28;19934;-79
2021/12/26 15:57:33;;;;;;;;;;;4.60;99.90;;;;;;4933246;28;19934;-80
2021/12/26 16:00:00;;;;;;;;;;;4.60;99.90;;;;;;4934667;28;19950;-79
2021/12/26 16:02:27;;;;;;;;;;;4.60;99.90;;;;;;4932254;28;19941;-80
2021/12/26 16:04:56;;;;;;;;;;;4.60;99.90;;;;;;4915186;28;19934;-80
2021/12/26 16:07:23;;;;;;;;;;;4.60;99.90;;;;;;4927715;28;19952;-79
2021/12/26 16:09:50;;;;;;;;;;;4.60;99.90;;;;;;4934685;28;19950;-80
2021/12/26 16:12:17;;;;;;;;;;;4.60;99.90;;;;;;4934086;28;20897;-80
2021/12/26 16:14:46;;;;;;;;;;;4.60;99.90;;;;;;4933133;28;19937;-79
2021/12/26 16:17:13;;;;;;;;;;;4.60;99.90;;;;;;4934103;28;19941;-80
2021/12/26 16:19:40;;;;;;;;;;;4.60;99.90;;;;;;4918063;28;20402;-78
2021/12/26 16:22:08;;;;;;;;;;;4.60;99.90;;;;;;4931766;28;20065;-79
2021/12/26 16:24:35;;;;;;;;;;;4.60;99.90;;;;;;4932077;28;19977;-79
2021/12/26 16:27:02;;;;;;;;;;;4.60;99.90;;;;;;4918479;28;19932;-79
2021/12/26 16:29:32;;;;;;;;;;;4.60;99.90;;;;;;4932817;28;19934;-80
2021/12/26 16:32:01;;;;;;;;;;;4.60;99.90;;;;;;4932131;28;19965;-79
2021/12/26 16:34:28;;;;;;;;;;;4.60;99.90;;;;;;4932325;28;20025;-79
2021/12/26 16:36:56;;;;;;;;;;;4.60;99.90;;;;;;4932337;28;19934;-79
2021/12/26 16:39:23;;;;;;;;;;;4.60;99.90;;;;;;4939781;28;19934;-79
2021/12/26 16:41:50;;;;;;;;;;;4.60;99.90;;;;;;4962000;28;20025;-79
2021/12/26 16:44:18;;;;;;;;;;;4.60;99.90;;;;;;4967248;28;19933;-79
2021/12/26 16:46:47;;;;;;;;;;;4.60;99.90;;;;;;4972830;28;19926;-80
2021/12/26 16:49:16;;;;;;;;;;;4.60;99.90;;;;;;4965136;28;19938;-79
2021/12/26 16:51:46;;;;;;;;;;;4.60;99.90;;;;;;4966344;28;19977;-80
2021/12/26 16:54:24;;;;;;;;;;;4.60;99.90;;;;;;4965844;28;19965;-79
2021/12/26 16:56:52;;;;;;;;;;;4.60;99.90;;;;;;4971961;28;19926;-79
2021/12/26 16:59:19;;;;;;;;;;;4.60;99.90;;;;;;4964572;28;19934;-79
2021/12/26 17:01:52;;;;;;;;;;;4.60;99.90;;;;;;4971221;28;19949;-79
2021/12/26 17:04:22;;;;;;;;;;;4.60;99.90;;;;;;4968242;28;20026;-79
2021/12/26 17:06:51;;;;;;;;;;;4.60;99.90;;;;;;4965029;28;20066;-80
2021/12/26 17:09:19;;;;;;;;;;;4.60;99.90;;;;;;4963418;28;19927;-80
2021/12/26 17:11:47;;;;;;;;;;;4.60;99.90;;;;;;5111835;23;19925;-87
2021/12/26 17:14:16;;;;;;;;;;;4.60;99.90;;;;;;5054552;28;20024;-89
2021/12/26 17:16:43;;;;;;;;;;;4.60;99.90;;;;;;5057784;28;19929;-88
2021/12/26 17:19:10;;;;;;;;;;;4.60;99.90;;;;;;5057898;28;19936;-88
2021/12/26 17:21:39;;;;;;;;;;;4.60;99.90;;;;;;5058415;28;19940;-87
2021/12/26 17:24:07;;;;;;;;;;;4.60;99.90;;;;;;5057576;28;19935;-89
2021/12/26 17:26:37;;;;;;;;;;;4.60;99.90;;;;;;5059260;28;19940;-86
2021/12/26 17:29:05;;;;;;;;;;;4.60;99.90;;;;;;5055199;28;19943;-88
2021/12/26 17:31:35;;;;;;;;;;;4.60;99.90;;;;;;5072093;28;19925;-88
2021/12/26 17:34:03;;;;;;;;;;;4.60;99.90;;;;;;5057897;28;19951;-87
2021/12/26 17:36:30;;;;;;;;;;;4.60;99.90;;;;;;5053547;28;19932;-89
2021/12/26 17:38:58;;;;;;;;;;;4.60;99.90;;;;;;5052159;28;19932;-88
2021/12/26 17:41:26;;;;;;;;;;;4.60;99.90;;;;;;5057570;28;19933;-87
2021/12/26 17:43:53;;;;;;;;;;;4.60;99.90;;;;;;5056067;28;19979;-87
2021/12/26 17:46:20;;;;;;;;;;;4.60;99.90;;;;;;5052337;28;19931;-87
2021/12/26 17:48:48;;;;;;;;;;;4.60;99.90;;;;;;5059213;28;19931;-87
2021/12/26 17:51:15;;;;;;;;;;;4.60;99.90;;;;;;5055281;28;20276;-86
2021/12/26 17:53:44;;;;;;;;;;;4.60;99.90;;;;;;5057825;28;19933;-86
2021/12/26 17:56:14;;;;;;;;;;;4.60;99.90;;;;;;5055255;28;19924;-88
2021/12/26 17:58:49;;;;;;;;;;;4.60;99.90;;;;;;5053443;28;19929;-87
2021/12/26 18:01:17;;;;;;;;;;;4.60;99.90;;;;;;5057277;28;19940;-87
2021/12/26 18:03:44;;;;;;;;;;;4.60;99.90;;;;;;5054050;28;20024;-88
2021/12/26 18:06:11;;;;;;;;;;;4.60;99.90;;;;;;5053117;28;21151;-87
2021/12/26 18:08:38;;;;;;;;;;;4.60;99.90;;;;;;5056057;28;19924;-87
2021/12/26 18:11:11;;;;;;;;;;;4.60;99.90;;;;;;5071319;28;19952;-89
2021/12/26 18:13:40;;;;;;;;;;;4.60;99.90;;;;;;5058985;28;20008;-87
2021/12/26 18:16:09;;;;;;;;;;;4.60;99.90;;;;;;5065305;28;20340;-87
2021/12/26 18:18:38;;;;;;;;;;;4.60;99.90;;;;;;5046380;28;19939;-88
2021/12/26 18:21:05;;;;;;;;;;;4.60;99.90;;;;;;5053536;28;20536;-87
2021/12/26 18:23:35;;;;;;;;;;;4.60;99.90;;;;;;5069089;28;19928;-89
2021/12/26 18:26:02;;;;;;;;;;;4.60;99.90;;;;;;5062501;28;20394;-88
2021/12/26 18:28:29;;;;;;;;;;;4.60;99.90;;;;;;5056750;28;19970;-87
2021/12/26 18:30:58;;;;;;;;;;;4.60;99.90;;;;;;5054784;28;19971;-90
2021/12/26 18:33:30;;;;;;;;;;;4.60;99.90;;;;;;5047178;28;19929;-88
2021/12/26 18:35:57;;;;;;;;;;;4.60;99.90;;;;;;5053362;28;19933;-86
2021/12/26 18:38:24;;;;;;;;;;;4.50;99.90;;;;;;5053192;28;19929;-87
2021/12/26 18:40:51;;;;;;;;;;;4.60;99.90;;;;;;5057400;28;19940;-86
2021/12/26 18:43:18;;;;;;;;;;;4.60;99.90;;;;;;5054321;28;20047;-87
2021/12/26 18:45:45;;;;;;;;;;;4.60;99.90;;;;;;5053858;28;19992;-88
2021/12/26 18:48:19;;;;;;;;;;;4.60;99.90;;;;;;5049176;28;19929;-87
2021/12/26 18:50:50;;;;;;;;;;;4.60;99.90;;;;;;5054083;28;19956;-88
2021/12/26 18:53:19;;;;;;;;;;;4.60;99.90;;;;;;5054484;28;19925;-87
2021/12/26 18:55:46;;;;;;;;;;;4.60;99.90;;;;;;5055370;28;19924;-87
2021/12/26 18:58:17;;;;;;;;;;;4.60;99.90;;;;;;5056913;28;19929;-86
2021/12/26 19:00:48;;;;;;;;;;;4.60;99.90;;;;;;5054030;28;20337;-87
2021/12/26 19:03:17;;;;;;;;;;;4.60;99.90;;;;;;5056892;28;19947;-88
2021/12/26 19:05:47;;;;;;;;;;;4.60;99.90;;;;;;5046003;28;19925;-87
2021/12/26 19:08:15;;;;;;;;;;;4.60;99.90;;;;;;5053120;28;19925;-87
2021/12/26 19:10:43;;;;;;;;;;;4.60;99.90;;;;;;5049150;28;19929;-86
2021/12/26 19:13:10;;;;;;;;;;;4.60;99.90;;;;;;5055086;28;20102;-87
2021/12/26 19:15:37;;;;;;;;;;;4.60;99.90;;;;;;5054317;28;19932;-87
2021/12/26 19:18:05;;;;;;;;;;;4.60;99.90;;;;;;5054519;28;19928;-87
2021/12/26 19:20:34;;;;;;;;;;;4.60;99.90;;;;;;5053330;28;20652;-87
2021/12/26 19:23:02;;;;;;;;;;;4.60;99.90;;;;;;5052717;28;19924;-90
2021/12/26 19:25:30;;;;;;;;;;;4.60;99.90;;;;;;5061101;28;19925;-90
2021/12/26 19:27:58;;;;;;;;;;;4.60;99.90;;;;;;5055156;28;20395;-87
2021/12/26 19:30:28;;;;;;;;;;;4.60;99.90;;;;;;5051681;28;19924;-87
2021/12/26 19:32:56;;;;;;;;;;;4.60;99.90;;;;;;5060042;28;19955;-89
2021/12/26 19:35:23;;;;;;;;;;;4.60;99.90;;;;;;5060363;28;19933;-87
2021/12/26 19:37:52;;;;;;;;;;;4.60;99.90;;;;;;5057735;28;19925;-87
2021/12/26 19:40:19;;;;;;;;;;;4.60;99.90;;;;;;5064357;28;19975;-87
2021/12/26 19:42:48;;;;;;;;;;;4.60;99.90;;;;;;5056945;28;20279;-87
2021/12/26 19:45:15;;;;;;;;;;;4.60;99.90;;;;;;5064479;28;19967;-87
2021/12/26 19:47:43;;;;;;;;;;;4.60;99.90;;;;;;5065908;28;19929;-89
2021/12/26 19:50:11;;;;;;;;;;;4.60;99.90;;;;;;5058280;28;19924;-86
2021/12/26 19:52:38;;;;;;;;;;;4.60;99.90;;;;;;5058432;28;19958;-88
2021/12/26 19:55:08;;;;;;;;;;;4.60;99.90;;;;;;5056631;28;19928;-88
2021/12/26 19:57:36;;;;;;;;;;;4.50;99.90;;;;;;5061623;28;20409;-86
2021/12/26 20:00:04;;;;;;;;;;;4.60;99.90;;;;;;5056986;28;19929;-88